Candelaria, Argentina
Current Conditions -  °F | °C
As of 5:00 PM on Sunday 21 Dec 2014 (Local Time) from SACO Reporting Station
Scattered Clouds Scattered Clouds  
Wind Chill: 70°   Ceiling: Unl
Heat Index: 70°   Visibility: 6mi
Dew Point: 32°   Wind: 13mph
Humidity: 25%   Direction: 160°SSE
Pressure: 29.94"   Gusts: NA
Location:  32.07°S, 65.82°W
Report Text: SACO 212000Z 16011KT 9999 SCT030 SCT10021/M00 Q1014
Loading
Personal Weather Stations






























Interactive Weather Map New forecast layout! Learn more

10-Day Weather Forecast

Advertisements
Track Severe Weather on mobile